createdAt,value
2022-10-22T00:00:29.861Z,97673.91
2022-10-22T00:03:31.976Z,97672.66
2022-10-22T00:06:34.473Z,97663.09
2022-10-22T00:09:36.484Z,97654.34
2022-10-22T00:12:38.428Z,97664.16
2022-10-22T00:15:40.545Z,97662.78
2022-10-22T00:18:42.547Z,97661.41
2022-10-22T00:21:44.574Z,97652.06
2022-10-22T00:24:46.533Z,97657.22
2022-10-22T00:27:49.159Z,97645.75
2022-10-22T00:30:59.130Z,97641.34
2022-10-22T00:34:01.688Z,97641.88
2022-10-22T00:37:03.911Z,97635.16
2022-10-22T00:40:06.294Z,97640.50
2022-10-22T00:43:12.409Z,97631.25
2022-10-22T00:46:14.444Z,97632.50
2022-10-22T00:49:16.617Z,97638.78
2022-10-22T00:52:19.316Z,97634.72
2022-10-22T00:55:22.700Z,97637.63
2022-10-22T00:58:29.504Z,97638.47
2022-10-22T01:01:32.545Z,97638.78
2022-10-22T01:04:34.760Z,97637.13
2022-10-22T01:07:44.252Z,97631.53
2022-10-22T01:11:04.409Z,97635.94
2022-10-22T01:14:46.538Z,97636.78
2022-10-22T01:18:01.216Z,97638.69
2022-10-22T01:21:23.690Z,97629.66
2022-10-22T01:24:42.556Z,97620.19
2022-10-22T01:28:01.803Z,97601.97
2022-10-22T01:31:06.182Z,97602.81
2022-10-22T01:34:10.699Z,97595.88
2022-10-22T01:37:15.564Z,97580.13
2022-10-22T01:40:19.438Z,97577.72
2022-10-22T01:43:21.497Z,97604.38
2022-10-22T01:46:27.112Z,97620.31
2022-10-22T01:49:54.160Z,97602.97
2022-10-22T01:53:11.788Z,97592.81
2022-10-22T01:56:42.731Z,97586.16
2022-10-22T02:00:02.822Z,97583.53
2022-10-22T02:03:17.434Z,97562.06
2022-10-22T02:06:24.972Z,97560.47
2022-10-22T02:09:29.541Z,97575.25
2022-10-22T02:12:34.045Z,97582.47
2022-10-22T02:15:38.705Z,97574.28
2022-10-22T02:18:44.572Z,97579.28
2022-10-22T02:21:46.589Z,97580.44
2022-10-22T02:24:49.480Z,97572.56
2022-10-22T02:28:25.720Z,97574.47
2022-10-22T02:31:34.116Z,97567.09
2022-10-22T02:34:36.340Z,97568.44
2022-10-22T02:37:40.393Z,97570.41
2022-10-22T02:40:42.623Z,97567.88
2022-10-22T02:43:56.282Z,97558.56
2022-10-22T02:46:59.425Z,97552.88
2022-10-22T02:50:01.839Z,97548.00
2022-10-22T02:53:04.918Z,97547.25
2022-10-22T02:56:07.308Z,97548.41
2022-10-22T02:59:09.487Z,97547.75
2022-10-22T03:02:11.471Z,97552.25
2022-10-22T03:05:13.704Z,97551.63
2022-10-22T03:08:15.689Z,97546.41
2022-10-22T03:11:17.665Z,97550.78
2022-10-22T03:14:19.801Z,97555.94
2022-10-22T03:17:22.337Z,97564.72
2022-10-22T03:20:24.326Z,97563.66
2022-10-22T03:23:26.344Z,97559.28
2022-10-22T03:26:28.445Z,97563.78
2022-10-22T03:29:32.156Z,97541.16
2022-10-22T03:32:34.205Z,97542.94
2022-10-22T03:35:42.890Z,97546.75
2022-10-22T03:38:45.520Z,97551.25
2022-10-22T03:41:49.638Z,97551.16
2022-10-22T03:44:51.649Z,97528.72
2022-10-22T03:47:53.719Z,97516.75
2022-10-22T03:50:55.778Z,97515.38
2022-10-22T03:53:57.828Z,97520.13
2022-10-22T03:56:59.869Z,97536.91
2022-10-22T04:00:02.005Z,97531.09
2022-10-22T04:03:07.216Z,97539.53
2022-10-22T04:06:12.069Z,97532.78
2022-10-22T04:09:14.133Z,97549.53
2022-10-22T04:12:16.220Z,97573.00
2022-10-22T04:15:18.529Z,97577.41
2022-10-22T04:18:21.455Z,97577.75
2022-10-22T04:21:23.488Z,97578.50
2022-10-22T04:24:25.744Z,97578.41
2022-10-22T04:27:34.818Z,97571.50
2022-10-22T04:30:37.242Z,97555.78
2022-10-22T04:33:39.760Z,97562.16
2022-10-22T04:36:41.744Z,97549.19
2022-10-22T04:39:43.762Z,97570.75
2022-10-22T04:42:45.856Z,97573.09
2022-10-22T04:45:48.066Z,97566.94
2022-10-22T04:48:51.224Z,97572.63
2022-10-22T04:51:53.222Z,97586.16
2022-10-22T04:54:55.224Z,97588.19
2022-10-22T04:57:57.205Z,97578.84
2022-10-22T05:00:59.280Z,97575.78
2022-10-22T05:04:03.318Z,97575.47
2022-10-22T05:07:05.444Z,97566.78
2022-10-22T05:10:08.113Z,97555.38
2022-10-22T05:13:10.059Z,97570.06
2022-10-22T05:16:13.570Z,97581.81
2022-10-22T05:19:20.481Z,97574.72
2022-10-22T05:22:22.490Z,97559.75
2022-10-22T05:25:24.499Z,97558.81
2022-10-22T05:28:26.665Z,97564.66
2022-10-22T05:31:29.135Z,97570.66
2022-10-22T05:34:31.089Z,97594.59
2022-10-22T05:37:33.088Z,97593.38
2022-10-22T05:40:35.097Z,97588.75
2022-10-22T05:43:38.113Z,97582.56
2022-10-22T05:46:40.970Z,97577.97
2022-10-22T05:49:42.932Z,97580.19
2022-10-22T05:52:44.968Z,97587.44
2022-10-22T05:55:46.903Z,97581.72
2022-10-22T05:58:49.462Z,97585.63
2022-10-22T06:01:51.939Z,97591.50
2022-10-22T06:04:53.969Z,97590.53
2022-10-22T06:07:57.038Z,97598.31
2022-10-22T06:10:59.874Z,97601.69
2022-10-22T06:14:01.838Z,97606.63
2022-10-22T06:17:03.823Z,97609.13
2022-10-22T06:20:06.457Z,97614.28
2022-10-22T06:23:08.521Z,97608.09
2022-10-22T06:26:11.471Z,97624.28
2022-10-22T06:29:13.455Z,97641.63
2022-10-22T06:32:15.378Z,97633.34
2022-10-22T06:35:17.545Z,97627.06
2022-10-22T06:38:19.711Z,97621.69
2022-10-22T06:41:24.383Z,97634.31
2022-10-22T06:44:29.459Z,97626.75
2022-10-22T06:47:33.532Z,97652.34
2022-10-22T06:50:35.619Z,97671.84
2022-10-22T06:53:39.462Z,97662.28
2022-10-22T06:56:41.561Z,97668.34
2022-10-22T06:59:43.600Z,97673.22
2022-10-22T07:02:56.420Z,97684.50
2022-10-22T07:06:02.843Z,97716.78
2022-10-22T07:09:04.988Z,97716.72
2022-10-22T07:12:07.221Z,97717.84
2022-10-22T07:15:09.641Z,97731.47
2022-10-22T07:18:11.721Z,97719.47
2022-10-22T07:21:15.642Z,97736.69
2022-10-22T07:24:17.726Z,97757.75
2022-10-22T07:27:19.762Z,97751.44
2022-10-22T07:30:21.791Z,97740.53
2022-10-22T07:33:23.712Z,97745.91
2022-10-22T07:36:26.006Z,97749.13
2022-10-22T07:39:29.058Z,97758.28
2022-10-22T07:42:31.111Z,97747.75
2022-10-22T07:45:33.872Z,97742.41
2022-10-22T07:48:37.782Z,97748.78
2022-10-22T07:51:39.889Z,97767.50
2022-10-22T07:54:41.961Z,97759.84
2022-10-22T07:57:43.957Z,97749.56
2022-10-22T08:00:46.461Z,97739.25
2022-10-22T08:03:49.260Z,97728.94
2022-10-22T08:06:51.398Z,97714.84
2022-10-22T08:09:53.418Z,97710.28
2022-10-22T08:12:56.095Z,97725.28
2022-10-22T08:16:01.580Z,97725.41
2022-10-22T08:19:03.594Z,97721.78
2022-10-22T08:22:05.681Z,97723.31
2022-10-22T08:25:08.167Z,97700.06
2022-10-22T08:28:10.216Z,97703.44
2022-10-22T08:31:12.708Z,97712.88
2022-10-22T08:34:15.004Z,97707.25
2022-10-22T08:37:18.049Z,97693.91
2022-10-22T08:40:34.199Z,97715.97
2022-10-22T08:44:04.773Z,97711.44
2022-10-22T08:47:22.380Z,97726.09
2022-10-22T08:50:31.484Z,60274.75
2022-10-22T08:54:08.012Z,60274.75
2022-10-22T08:57:10.000Z,60274.75
2022-10-22T09:00:33.504Z,97722.03
2022-10-22T09:03:44.396Z,60274.75
2022-10-22T09:06:49.556Z,60274.75
2022-10-22T09:09:55.772Z,60274.75
2022-10-22T09:12:57.919Z,60274.75
2022-10-22T09:16:11.529Z,60274.75
2022-10-22T09:19:55.477Z,60274.75
2022-10-22T09:23:06.389Z,60274.75
2022-10-22T09:26:16.674Z,60274.75
2022-10-22T09:29:24.723Z,60274.75
2022-10-22T09:32:27.593Z,60274.75
2022-10-22T09:35:34.821Z,60274.75
2022-10-22T09:38:49.806Z,60274.75
2022-10-22T09:41:52.063Z,60274.75
2022-10-22T09:44:56.617Z,60274.75
2022-10-22T09:48:30.680Z,60274.75
2022-10-22T09:51:55.310Z,60274.75
2022-10-22T09:55:01.851Z,60274.75
2022-10-22T09:58:03.932Z,60274.75
2022-10-22T10:01:06.071Z,60274.75
2022-10-22T10:04:11.229Z,60274.75
2022-10-22T10:07:30.342Z,60274.75
2022-10-22T10:10:35.368Z,60274.75
2022-10-22T10:13:38.757Z,60274.75
2022-10-22T10:17:05.317Z,60274.75
2022-10-22T10:20:26.818Z,60274.75
2022-10-22T10:23:56.885Z,60274.75
2022-10-22T10:27:10.574Z,60274.75
2022-10-22T10:30:21.694Z,60274.75
2022-10-22T10:33:36.762Z,60274.75
2022-10-22T10:36:58.962Z,60274.75
2022-10-22T10:40:31.831Z,60274.75
2022-10-22T10:44:05.968Z,60274.75
2022-10-22T10:47:29.389Z,60274.75
2022-10-22T10:50:53.663Z,60274.75
2022-10-22T10:54:27.920Z,60274.75
2022-10-22T10:57:54.013Z,60274.75
2022-10-22T11:01:03.651Z,60274.75
2022-10-22T11:04:53.297Z,60274.75
2022-10-22T11:08:03.503Z,60274.75
2022-10-22T11:11:14.784Z,60274.75
2022-10-22T11:14:31.470Z,60274.75
2022-10-22T11:17:44.715Z,60274.75
2022-10-22T11:20:55.535Z,60274.75
2022-10-22T11:24:22.078Z,60274.75
2022-10-22T11:27:29.257Z,60274.75
2022-10-22T11:30:38.033Z,60274.75
2022-10-22T11:34:00.450Z,60274.75
2022-10-22T11:37:14.143Z,60274.75
2022-10-22T11:40:18.837Z,60274.75
2022-10-22T11:43:26.909Z,60274.75
2022-10-22T11:46:40.551Z,60274.75
2022-10-22T11:49:58.586Z,60274.75
2022-10-22T11:53:08.131Z,60274.75
2022-10-22T11:56:13.352Z,60274.75
2022-10-22T11:59:38.670Z,60274.75
2022-10-22T12:02:43.230Z,60274.75
2022-10-22T12:05:46.761Z,60274.75
2022-10-22T12:08:54.771Z,60274.75
2022-10-22T12:12:05.021Z,60274.75
2022-10-22T12:15:27.331Z,60274.75
2022-10-22T12:18:41.626Z,60274.75
2022-10-22T12:21:49.029Z,60274.75
2022-10-22T12:24:57.332Z,60274.75
2022-10-22T12:28:01.123Z,60274.75
2022-10-22T12:31:03.823Z,60274.75
2022-10-22T12:34:06.292Z,60274.75
2022-10-22T12:37:10.988Z,60274.75
2022-10-22T12:40:25.403Z,60274.75
2022-10-22T12:43:29.989Z,60274.75
2022-10-22T12:46:34.774Z,60274.75
2022-10-22T12:49:41.020Z,60274.75
2022-10-22T12:52:43.857Z,60274.75
2022-10-22T12:55:52.183Z,60274.75
2022-10-22T12:59:02.375Z,60274.75
2022-10-22T13:02:25.790Z,60274.75
2022-10-22T13:05:34.302Z,60274.75
2022-10-22T13:08:39.491Z,60274.75
2022-10-22T13:11:50.108Z,60274.75
2022-10-22T13:14:52.231Z,60274.75
2022-10-22T13:18:18.737Z,60274.75
2022-10-22T13:21:35.199Z,60274.75
2022-10-22T13:24:49.915Z,60274.75
2022-10-22T13:27:54.024Z,60274.75
2022-10-22T13:31:17.715Z,60274.75
2022-10-22T13:34:25.082Z,60274.75
2022-10-22T13:37:29.068Z,60274.75
2022-10-22T13:40:31.196Z,60274.75
2022-10-22T13:43:33.270Z,60274.75
2022-10-22T13:46:42.544Z,60274.75
2022-10-22T13:49:46.999Z,60274.75
2022-10-22T13:52:55.211Z,60274.75
2022-10-22T13:55:57.533Z,60274.75
2022-10-22T13:58:59.654Z,60274.75
2022-10-22T14:02:06.613Z,60274.75
2022-10-22T14:05:09.873Z,60274.75
2022-10-22T14:08:14.296Z,60274.75
2022-10-22T14:11:17.509Z,60274.75
2022-10-22T14:14:19.524Z,60274.75
2022-10-22T14:17:21.663Z,60274.75
2022-10-22T14:20:26.997Z,60274.75
2022-10-22T14:23:30.943Z,60274.75
2022-10-22T14:26:33.928Z,60274.75
2022-10-22T14:29:35.908Z,60274.75
2022-10-22T14:32:38.270Z,60274.75
2022-10-22T14:35:40.404Z,60274.75
2022-10-22T14:38:49.439Z,60274.75
2022-10-22T14:41:51.390Z,60274.75
2022-10-22T14:44:53.480Z,60274.75
2022-10-22T14:47:55.889Z,60274.75
2022-10-22T14:50:57.933Z,60274.75
2022-10-22T14:54:00.005Z,60274.75
2022-10-22T14:57:05.363Z,60274.75
2022-10-22T15:00:09.914Z,60274.75
2022-10-22T15:03:11.970Z,60274.75
2022-10-22T15:06:18.040Z,60274.75
2022-10-22T15:09:20.111Z,60274.75
2022-10-22T15:12:22.134Z,60274.75
2022-10-22T15:15:25.590Z,60274.75
2022-10-22T15:18:29.991Z,60274.75
2022-10-22T15:21:32.174Z,60274.75
2022-10-22T15:24:34.320Z,60274.75
2022-10-22T15:27:36.501Z,60274.75
2022-10-22T15:30:38.886Z,60274.75
2022-10-22T15:33:43.725Z,60274.75
2022-10-22T15:36:45.896Z,60274.75
2022-10-22T15:39:48.108Z,60274.75
2022-10-22T15:42:50.349Z,60274.75
2022-10-22T15:46:13.689Z,60274.75
2022-10-22T15:49:15.949Z,60274.75
2022-10-22T15:52:18.096Z,60274.75
2022-10-22T15:55:20.665Z,60274.75
2022-10-22T15:58:22.786Z,60274.75
2022-10-22T16:01:26.398Z,60274.75
2022-10-22T16:04:29.754Z,60274.75
2022-10-22T16:07:32.219Z,60274.75
2022-10-22T16:10:34.400Z,60274.75
2022-10-22T16:13:37.983Z,60274.75
2022-10-22T16:16:43.934Z,60274.75
2022-10-22T16:19:47.572Z,60274.75
2022-10-22T16:22:50.897Z,60274.75
2022-10-22T16:25:53.459Z,60274.75
2022-10-22T16:28:55.774Z,60274.75
2022-10-22T16:31:58.232Z,60274.75
2022-10-22T16:35:00.710Z,60274.75
2022-10-22T16:38:03.249Z,60274.75
2022-10-22T16:41:35.319Z,60274.75
2022-10-22T16:44:37.691Z,60274.75
2022-10-22T16:47:40.960Z,60274.75
2022-10-22T16:50:43.822Z,60274.75
2022-10-22T16:53:46.847Z,60274.75
2022-10-22T16:56:49.570Z,60274.75
2022-10-22T16:59:52.045Z,60274.75
2022-10-22T17:02:56.767Z,97912.47
2022-10-22T17:06:00.999Z,97905.59
2022-10-22T17:09:04.630Z,97914.78
2022-10-22T17:12:08.704Z,97917.31
2022-10-22T17:15:11.764Z,97921.38
2022-10-22T17:18:14.948Z,97941.47
2022-10-22T17:21:18.699Z,97925.94
2022-10-22T17:24:21.612Z,97936.53
2022-10-22T17:27:24.711Z,97937.25
2022-10-22T17:30:29.074Z,97945.97
2022-10-22T17:33:32.490Z,97943.63
2022-10-22T17:36:36.327Z,97947.44
2022-10-22T17:39:38.744Z,97948.53
2022-10-22T17:42:41.757Z,97947.88
2022-10-22T17:45:44.731Z,97955.50
2022-10-22T17:49:02.677Z,97962.44
2022-10-22T17:52:05.760Z,97960.13
2022-10-22T17:55:08.687Z,97970.59
2022-10-22T17:58:11.574Z,97979.44
2022-10-22T18:01:24.478Z,97970.19
2022-10-22T18:04:26.967Z,97984.75
2022-10-22T18:07:32.348Z,97984.75
2022-10-22T18:10:40.303Z,97985.31
2022-10-22T18:13:43.060Z,97992.69
2022-10-22T18:16:46.496Z,98002.50
2022-10-22T18:19:50.451Z,98001.97
2022-10-22T18:22:55.390Z,97997.59
2022-10-22T18:25:58.451Z,98007.16
2022-10-22T18:29:02.338Z,98003.59
2022-10-22T18:32:12.144Z,98004.56
2022-10-22T18:35:18.539Z,79477.22
2022-10-22T18:38:29.246Z,60274.75
2022-10-22T18:41:33.604Z,60274.75
2022-10-22T18:44:37.060Z,60274.75
2022-10-22T18:47:43.360Z,60274.75
2022-10-22T18:50:47.874Z,60274.75
2022-10-22T18:54:05.229Z,79468.66
2022-10-22T18:57:16.406Z,98037.78
2022-10-22T19:00:19.387Z,60274.75
2022-10-22T19:03:22.459Z,60274.75
2022-10-22T19:06:34.509Z,60274.75
2022-10-22T19:09:40.656Z,60274.75
2022-10-22T19:12:42.845Z,98043.47
2022-10-22T19:15:45.421Z,60274.75
2022-10-22T19:18:47.533Z,60274.75
2022-10-22T19:21:50.551Z,60274.75
2022-10-22T19:24:53.768Z,60274.75
2022-10-22T19:27:56.095Z,60274.75
2022-10-22T19:30:59.288Z,60274.75
2022-10-22T19:34:02.832Z,60274.75
2022-10-22T19:37:05.552Z,60274.75
2022-10-22T19:40:09.635Z,60274.75
2022-10-22T19:43:13.545Z,98083.66
2022-10-22T19:46:19.040Z,98083.28
2022-10-22T19:49:22.989Z,98084.47
2022-10-22T19:52:26.331Z,98081.84
2022-10-22T19:55:29.310Z,98087.19
2022-10-22T19:58:31.852Z,98080.69
2022-10-22T20:01:34.357Z,98075.00
2022-10-22T20:04:37.040Z,98082.13
2022-10-22T20:07:39.472Z,98086.34
2022-10-22T20:10:41.935Z,98095.00
2022-10-22T20:13:46.755Z,98092.91
2022-10-22T20:16:52.121Z,98089.47
2022-10-22T20:19:54.237Z,98101.38
2022-10-22T20:22:56.589Z,98102.63
2022-10-22T20:26:00.143Z,98094.31
2022-10-22T20:29:02.424Z,98106.78
2022-10-22T20:32:06.747Z,98101.50
2022-10-22T20:35:10.888Z,98104.44
2022-10-22T20:38:15.341Z,98107.19
2022-10-22T20:41:23.196Z,79415.94
2022-10-22T20:44:25.756Z,60274.75
2022-10-22T20:47:39.155Z,98113.47
2022-10-22T20:50:50.332Z,60274.75
2022-10-22T20:53:52.902Z,60274.75
2022-10-22T20:56:55.622Z,60274.75
2022-10-22T20:59:58.473Z,60274.75
2022-10-22T21:03:02.366Z,60274.75
2022-10-22T21:06:06.116Z,60274.75
2022-10-22T21:09:12.167Z,60274.75
2022-10-22T21:12:14.207Z,60274.75
2022-10-22T21:15:16.338Z,60274.75
2022-10-22T21:18:18.393Z,60274.75
2022-10-22T21:21:20.483Z,60274.75
2022-10-22T21:24:24.940Z,60274.75
2022-10-22T21:27:27.052Z,60274.75
2022-10-22T21:30:29.073Z,60274.75
2022-10-22T21:33:31.528Z,60274.75
2022-10-22T21:36:33.534Z,60274.75
2022-10-22T21:39:41.058Z,60274.75
2022-10-22T21:42:44.296Z,60274.75
2022-10-22T21:45:46.579Z,60274.75
2022-10-22T21:48:56.362Z,60274.75
2022-10-22T21:52:00.306Z,60274.75
2022-10-22T21:55:02.322Z,60274.75
2022-10-22T21:58:04.254Z,60274.75
2022-10-22T22:01:06.394Z,60274.75
2022-10-22T22:04:08.453Z,60274.75
2022-10-22T22:07:10.464Z,60274.75
2022-10-22T22:10:12.673Z,60274.75
2022-10-22T22:13:14.724Z,60274.75
2022-10-22T22:16:23.950Z,60274.75
2022-10-22T22:19:29.358Z,60274.75
2022-10-22T22:22:31.378Z,60274.75
2022-10-22T22:25:33.440Z,60274.75
2022-10-22T22:28:36.042Z,60274.75
2022-10-22T22:31:38.060Z,60274.75
2022-10-22T22:34:42.585Z,60274.75
2022-10-22T22:37:44.650Z,60274.75
2022-10-22T22:40:46.733Z,60274.75
2022-10-22T22:43:48.760Z,60274.75
2022-10-22T22:46:50.873Z,60274.75
2022-10-22T22:49:52.918Z,60274.75
2022-10-22T22:52:55.013Z,60274.75
2022-10-22T22:56:18.819Z,60274.75
2022-10-22T22:59:22.073Z,60274.75
2022-10-22T23:02:24.227Z,60274.75
2022-10-22T23:05:26.259Z,60274.75
2022-10-22T23:08:28.211Z,60274.75
2022-10-22T23:11:30.221Z,60274.75
2022-10-22T23:14:32.202Z,60274.75
2022-10-22T23:17:34.124Z,60274.75
2022-10-22T23:20:39.145Z,60274.75
2022-10-22T23:23:46.715Z,60274.75
2022-10-22T23:26:50.980Z,60274.75
2022-10-22T23:29:53.000Z,60274.75
2022-10-22T23:32:55.027Z,60274.75
2022-10-22T23:35:57.144Z,60274.75
2022-10-22T23:38:59.192Z,60274.75
2022-10-22T23:42:01.269Z,60274.75
2022-10-22T23:45:03.393Z,60274.75
2022-10-22T23:48:05.620Z,60274.75
2022-10-22T23:51:13.624Z,60274.75
2022-10-22T23:54:20.834Z,60274.75
2022-10-22T23:57:23.337Z,60274.75
